sensor_id;sensor_type;location;lat;lon;timestamp;P1;durP1;ratioP1;P2;durP2;ratioP2
57800;SDS011;43627;42.728;23.256;2023-01-16T00:01:26;68.22;;;31.42;;
57800;SDS011;43627;42.728;23.256;2023-01-16T00:03:54;72.88;;;30.27;;
57800;SDS011;43627;42.728;23.256;2023-01-16T00:06:21;71.22;;;30.48;;
57800;SDS011;43627;42.728;23.256;2023-01-16T00:08:48;60.22;;;27.58;;
57800;SDS011;43627;42.728;23.256;2023-01-16T00:11:15;68.95;;;28.30;;
57800;SDS011;43627;42.728;23.256;2023-01-16T00:13:41;75.13;;;29.08;;
57800;SDS011;43627;42.728;23.256;2023-01-16T00:16:08;67.78;;;29.85;;
57800;SDS011;43627;42.728;23.256;2023-01-16T00:18:35;67.07;;;29.23;;
57800;SDS011;43627;42.728;23.256;2023-01-16T00:21:02;71.97;;;29.73;;
57800;SDS011;43627;42.728;23.256;2023-01-16T00:23:29;74.40;;;30.63;;
57800;SDS011;43627;42.728;23.256;2023-01-16T00:25:55;70.88;;;30.00;;
57800;SDS011;43627;42.728;23.256;2023-01-16T00:28:22;61.15;;;28.58;;
57800;SDS011;43627;42.728;23.256;2023-01-16T00:30:49;66.80;;;28.08;;
57800;SDS011;43627;42.728;23.256;2023-01-16T00:33:16;72.68;;;29.17;;
57800;SDS011;43627;42.728;23.256;2023-01-16T00:35:45;63.97;;;27.67;;
57800;SDS011;43627;42.728;23.256;2023-01-16T00:38:12;61.22;;;27.50;;
57800;SDS011;43627;42.728;23.256;2023-01-16T00:40:39;64.22;;;27.88;;
57800;SDS011;43627;42.728;23.256;2023-01-16T00:43:06;63.90;;;27.48;;
57800;SDS011;43627;42.728;23.256;2023-01-16T00:45:33;59.30;;;25.98;;
57800;SDS011;43627;42.728;23.256;2023-01-16T00:48:00;67.25;;;28.17;;
57800;SDS011;43627;42.728;23.256;2023-01-16T00:50:26;57.92;;;25.60;;
57800;SDS011;43627;42.728;23.256;2023-01-16T00:52:53;59.63;;;26.58;;
57800;SDS011;43627;42.728;23.256;2023-01-16T00:55:20;58.35;;;26.25;;
57800;SDS011;43627;42.728;23.256;2023-01-16T00:57:47;57.03;;;26.23;;
57800;SDS011;43627;42.728;23.256;2023-01-16T01:00:18;57.58;;;27.52;;
57800;SDS011;43627;42.728;23.256;2023-01-16T01:02:50;61.67;;;26.42;;
57800;SDS011;43627;42.728;23.256;2023-01-16T01:05:17;57.63;;;25.00;;
57800;SDS011;43627;42.728;23.256;2023-01-16T01:07:44;65.82;;;25.35;;
57800;SDS011;43627;42.728;23.256;2023-01-16T01:10:11;55.28;;;23.95;;
57800;SDS011;43627;42.728;23.256;2023-01-16T01:12:37;61.40;;;26.27;;
57800;SDS011;43627;42.728;23.256;2023-01-16T01:15:04;60.05;;;25.75;;
57800;SDS011;43627;42.728;23.256;2023-01-16T01:17:32;59.60;;;25.27;;
57800;SDS011;43627;42.728;23.256;2023-01-16T01:19:58;63.13;;;26.13;;
57800;SDS011;43627;42.728;23.256;2023-01-16T01:22:27;65.18;;;26.17;;
57800;SDS011;43627;42.728;23.256;2023-01-16T01:24:56;57.65;;;24.25;;
57800;SDS011;43627;42.728;23.256;2023-01-16T01:27:23;61.28;;;25.75;;
57800;SDS011;43627;42.728;23.256;2023-01-16T01:29:51;64.90;;;27.48;;
57800;SDS011;43627;42.728;23.256;2023-01-16T01:32:18;62.65;;;24.83;;
57800;SDS011;43627;42.728;23.256;2023-01-16T01:34:44;61.80;;;25.58;;
57800;SDS011;43627;42.728;23.256;2023-01-16T01:37:11;58.85;;;24.75;;
57800;SDS011;43627;42.728;23.256;2023-01-16T01:39:38;66.47;;;25.15;;
57800;SDS011;43627;42.728;23.256;2023-01-16T01:42:05;61.15;;;25.70;;
57800;SDS011;43627;42.728;23.256;2023-01-16T01:44:57;54.58;;;23.38;;
57800;SDS011;43627;42.728;23.256;2023-01-16T01:47:32;57.93;;;26.27;;
57800;SDS011;43627;42.728;23.256;2023-01-16T01:50:04;56.40;;;25.63;;
57800;SDS011;43627;42.728;23.256;2023-01-16T01:52:44;59.83;;;25.23;;
57800;SDS011;43627;42.728;23.256;2023-01-16T01:55:11;65.63;;;25.77;;
57800;SDS011;43627;42.728;23.256;2023-01-16T01:57:42;61.95;;;26.02;;
57800;SDS011;43627;42.728;23.256;2023-01-16T02:02:43;57.00;;;26.60;;
57800;SDS011;43627;42.728;23.256;2023-01-16T02:05:15;63.55;;;27.42;;
57800;SDS011;43627;42.728;23.256;2023-01-16T02:07:49;64.32;;;26.55;;
57800;SDS011;43627;42.728;23.256;2023-01-16T02:12:55;60.70;;;25.65;;
57800;SDS011;43627;42.728;23.256;2023-01-16T02:15:22;63.65;;;26.08;;
57800;SDS011;43627;42.728;23.256;2023-01-16T02:17:49;60.08;;;24.98;;
57800;SDS011;43627;42.728;23.256;2023-01-16T02:39:59;67.65;;;27.25;;
57800;SDS011;43627;42.728;23.256;2023-01-16T02:42:37;74.55;;;29.02;;
57800;SDS011;43627;42.728;23.256;2023-01-16T02:45:28;67.88;;;26.95;;
57800;SDS011;43627;42.728;23.256;2023-01-16T02:48:09;63.17;;;27.15;;
57800;SDS011;43627;42.728;23.256;2023-01-16T02:53:31;65.63;;;27.33;;
57800;SDS011;43627;42.728;23.256;2023-01-16T02:56:03;67.88;;;27.73;;
57800;SDS011;43627;42.728;23.256;2023-01-16T02:58:37;64.55;;;27.67;;
57800;SDS011;43627;42.728;23.256;2023-01-16T03:01:07;61.92;;;25.75;;
57800;SDS011;43627;42.728;23.256;2023-01-16T03:09:05;60.97;;;25.38;;
57800;SDS011;43627;42.728;23.256;2023-01-16T03:14:47;56.70;;;24.83;;
57800;SDS011;43627;42.728;23.256;2023-01-16T03:26:14;58.58;;;26.08;;
57800;SDS011;43627;42.728;23.256;2023-01-16T03:36:51;62.45;;;25.20;;
57800;SDS011;43627;42.728;23.256;2023-01-16T03:39:27;65.80;;;26.33;;
57800;SDS011;43627;42.728;23.256;2023-01-16T03:42:00;66.28;;;26.17;;
57800;SDS011;43627;42.728;23.256;2023-01-16T03:44:32;62.03;;;24.90;;
57800;SDS011;43627;42.728;23.256;2023-01-16T03:47:04;59.97;;;24.00;;
57800;SDS011;43627;42.728;23.256;2023-01-16T03:49:37;60.97;;;24.65;;
57800;SDS011;43627;42.728;23.256;2023-01-16T03:52:08;59.22;;;24.65;;
57800;SDS011;43627;42.728;23.256;2023-01-16T03:59:49;98.30;;;40.80;;
57800;SDS011;43627;42.728;23.256;2023-01-16T04:10:18;71.43;;;28.83;;
57800;SDS011;43627;42.728;23.256;2023-01-16T04:12:50;58.78;;;27.23;;
57800;SDS011;43627;42.728;23.256;2023-01-16T04:15:21;71.65;;;26.38;;
57800;SDS011;43627;42.728;23.256;2023-01-16T04:17:51;67.80;;;27.52;;
57800;SDS011;43627;42.728;23.256;2023-01-16T04:20:18;67.47;;;26.95;;
57800;SDS011;43627;42.728;23.256;2023-01-16T04:22:49;69.30;;;28.13;;
57800;SDS011;43627;42.728;23.256;2023-01-16T04:25:16;64.72;;;26.83;;
57800;SDS011;43627;42.728;23.256;2023-01-16T04:27:45;65.72;;;27.02;;
57800;SDS011;43627;42.728;23.256;2023-01-16T04:30:12;66.07;;;27.13;;
57800;SDS011;43627;42.728;23.256;2023-01-16T04:32:41;64.47;;;24.40;;
57800;SDS011;43627;42.728;23.256;2023-01-16T04:35:08;71.78;;;28.38;;
57800;SDS011;43627;42.728;23.256;2023-01-16T04:37:35;67.28;;;27.95;;
57800;SDS011;43627;42.728;23.256;2023-01-16T04:40:02;61.15;;;26.35;;
57800;SDS011;43627;42.728;23.256;2023-01-16T04:42:30;56.60;;;26.23;;
57800;SDS011;43627;42.728;23.256;2023-01-16T04:44:57;62.75;;;27.40;;
57800;SDS011;43627;42.728;23.256;2023-01-16T04:47:23;62.78;;;27.17;;
57800;SDS011;43627;42.728;23.256;2023-01-16T04:49:50;65.10;;;26.77;;
57800;SDS011;43627;42.728;23.256;2023-01-16T04:52:16;64.22;;;27.77;;
57800;SDS011;43627;42.728;23.256;2023-01-16T04:54:43;77.95;;;28.08;;
57800;SDS011;43627;42.728;23.256;2023-01-16T04:57:10;63.03;;;27.10;;
57800;SDS011;43627;42.728;23.256;2023-01-16T04:59:37;62.13;;;27.20;;
57800;SDS011;43627;42.728;23.256;2023-01-16T05:02:04;74.82;;;26.92;;
57800;SDS011;43627;42.728;23.256;2023-01-16T05:04:31;64.25;;;27.17;;
57800;SDS011;43627;42.728;23.256;2023-01-16T05:06:57;75.15;;;28.25;;
57800;SDS011;43627;42.728;23.256;2023-01-16T05:09:24;67.57;;;27.98;;
57800;SDS011;43627;42.728;23.256;2023-01-16T05:11:51;62.22;;;26.35;;
57800;SDS011;43627;42.728;23.256;2023-01-16T05:14:17;65.35;;;26.88;;
57800;SDS011;43627;42.728;23.256;2023-01-16T05:16:44;65.38;;;25.50;;
57800;SDS011;43627;42.728;23.256;2023-01-16T05:19:11;66.32;;;27.85;;
57800;SDS011;43627;42.728;23.256;2023-01-16T05:21:37;70.28;;;27.92;;
57800;SDS011;43627;42.728;23.256;2023-01-16T05:24:04;68.18;;;27.60;;
57800;SDS011;43627;42.728;23.256;2023-01-16T05:26:31;87.75;;;31.63;;
57800;SDS011;43627;42.728;23.256;2023-01-16T05:28:58;85.38;;;31.08;;
57800;SDS011;43627;42.728;23.256;2023-01-16T05:31:25;86.65;;;29.38;;
57800;SDS011;43627;42.728;23.256;2023-01-16T05:33:52;90.78;;;31.77;;
57800;SDS011;43627;42.728;23.256;2023-01-16T05:36:18;91.75;;;30.88;;
57800;SDS011;43627;42.728;23.256;2023-01-16T05:38:45;98.35;;;31.75;;
57800;SDS011;43627;42.728;23.256;2023-01-16T05:41:12;104.85;;;34.00;;
57800;SDS011;43627;42.728;23.256;2023-01-16T05:43:39;148.73;;;35.22;;
57800;SDS011;43627;42.728;23.256;2023-01-16T05:46:06;119.15;;;34.28;;
57800;SDS011;43627;42.728;23.256;2023-01-16T05:48:33;116.57;;;33.47;;
57800;SDS011;43627;42.728;23.256;2023-01-16T05:51:02;130.75;;;33.88;;
57800;SDS011;43627;42.728;23.256;2023-01-16T05:53:29;108.15;;;29.80;;
57800;SDS011;43627;42.728;23.256;2023-01-16T05:55:57;118.40;;;29.63;;
57800;SDS011;43627;42.728;23.256;2023-01-16T05:58:24;111.50;;;32.38;;
57800;SDS011;43627;42.728;23.256;2023-01-16T06:00:51;114.85;;;30.25;;
57800;SDS011;43627;42.728;23.256;2023-01-16T06:03:18;107.70;;;31.10;;
57800;SDS011;43627;42.728;23.256;2023-01-16T06:05:45;103.72;;;29.83;;
57800;SDS011;43627;42.728;23.256;2023-01-16T06:08:12;102.78;;;29.73;;
57800;SDS011;43627;42.728;23.256;2023-01-16T06:10:39;100.43;;;31.33;;
57800;SDS011;43627;42.728;23.256;2023-01-16T06:13:06;94.68;;;29.42;;
57800;SDS011;43627;42.728;23.256;2023-01-16T06:15:32;102.72;;;32.08;;
57800;SDS011;43627;42.728;23.256;2023-01-16T06:17:59;108.38;;;31.70;;
57800;SDS011;43627;42.728;23.256;2023-01-16T06:20:26;105.72;;;33.28;;
57800;SDS011;43627;42.728;23.256;2023-01-16T06:22:52;113.32;;;32.22;;
57800;SDS011;43627;42.728;23.256;2023-01-16T06:25:19;127.65;;;34.10;;
57800;SDS011;43627;42.728;23.256;2023-01-16T06:27:49;121.07;;;33.95;;
57800;SDS011;43627;42.728;23.256;2023-01-16T06:30:17;111.75;;;31.70;;
57800;SDS011;43627;42.728;23.256;2023-01-16T06:32:47;138.50;;;34.33;;
57800;SDS011;43627;42.728;23.256;2023-01-16T06:35:15;137.30;;;36.97;;
57800;SDS011;43627;42.728;23.256;2023-01-16T06:37:42;121.03;;;34.00;;
57800;SDS011;43627;42.728;23.256;2023-01-16T06:40:09;121.63;;;34.67;;
57800;SDS011;43627;42.728;23.256;2023-01-16T06:42:37;142.63;;;36.70;;
57800;SDS011;43627;42.728;23.256;2023-01-16T06:45:04;125.22;;;36.47;;
57800;SDS011;43627;42.728;23.256;2023-01-16T06:47:31;126.00;;;36.85;;
57800;SDS011;43627;42.728;23.256;2023-01-16T06:49:58;121.63;;;38.60;;
57800;SDS011;43627;42.728;23.256;2023-01-16T06:52:25;131.95;;;38.55;;
57800;SDS011;43627;42.728;23.256;2023-01-16T06:54:51;116.97;;;38.03;;
57800;SDS011;43627;42.728;23.256;2023-01-16T06:57:18;127.38;;;38.38;;
57800;SDS011;43627;42.728;23.256;2023-01-16T06:59:45;121.53;;;37.80;;
57800;SDS011;43627;42.728;23.256;2023-01-16T07:02:11;133.50;;;40.72;;
57800;SDS011;43627;42.728;23.256;2023-01-16T07:04:38;113.00;;;33.75;;
57800;SDS011;43627;42.728;23.256;2023-01-16T07:07:05;104.10;;;36.20;;
57800;SDS011;43627;42.728;23.256;2023-01-16T07:09:31;102.18;;;34.38;;
57800;SDS011;43627;42.728;23.256;2023-01-16T07:11:58;96.50;;;32.72;;
57800;SDS011;43627;42.728;23.256;2023-01-16T07:14:25;86.93;;;31.35;;
57800;SDS011;43627;42.728;23.256;2023-01-16T07:17:11;85.18;;;30.80;;
57800;SDS011;43627;42.728;23.256;2023-01-16T07:19:56;92.43;;;31.08;;
57800;SDS011;43627;42.728;23.256;2023-01-16T07:22:42;102.90;;;32.05;;
57800;SDS011;43627;42.728;23.256;2023-01-16T07:25:16;85.75;;;30.75;;
57800;SDS011;43627;42.728;23.256;2023-01-16T07:27:47;95.43;;;33.15;;
57800;SDS011;43627;42.728;23.256;2023-01-16T07:30:16;86.25;;;31.58;;
57800;SDS011;43627;42.728;23.256;2023-01-16T07:32:45;87.10;;;32.17;;
57800;SDS011;43627;42.728;23.256;2023-01-16T07:35:12;82.90;;;31.95;;
57800;SDS011;43627;42.728;23.256;2023-01-16T07:37:39;77.22;;;32.58;;
57800;SDS011;43627;42.728;23.256;2023-01-16T07:40:06;75.95;;;29.95;;
57800;SDS011;43627;42.728;23.256;2023-01-16T07:42:33;79.45;;;31.08;;
57800;SDS011;43627;42.728;23.256;2023-01-16T07:45:00;90.07;;;33.25;;
57800;SDS011;43627;42.728;23.256;2023-01-16T07:47:26;82.03;;;31.98;;
57800;SDS011;43627;42.728;23.256;2023-01-16T07:49:53;72.82;;;29.75;;
57800;SDS011;43627;42.728;23.256;2023-01-16T07:52:20;82.03;;;32.50;;
57800;SDS011;43627;42.728;23.256;2023-01-16T07:54:46;78.82;;;32.20;;
57800;SDS011;43627;42.728;23.256;2023-01-16T07:57:13;89.72;;;39.65;;
57800;SDS011;43627;42.728;23.256;2023-01-16T07:59:40;106.25;;;46.45;;
57800;SDS011;43627;42.728;23.256;2023-01-16T08:02:07;110.93;;;47.97;;
57800;SDS011;43627;42.728;23.256;2023-01-16T08:04:36;139.00;;;55.83;;
57800;SDS011;43627;42.728;23.256;2023-01-16T08:07:03;141.63;;;58.90;;
57800;SDS011;43627;42.728;23.256;2023-01-16T08:09:30;145.07;;;61.95;;
57800;SDS011;43627;42.728;23.256;2023-01-16T08:11:56;107.53;;;44.45;;
57800;SDS011;43627;42.728;23.256;2023-01-16T08:14:23;84.10;;;37.65;;
57800;SDS011;43627;42.728;23.256;2023-01-16T08:16:50;93.68;;;41.13;;
57800;SDS011;43627;42.728;23.256;2023-01-16T08:19:16;88.38;;;41.42;;
57800;SDS011;43627;42.728;23.256;2023-01-16T08:21:43;84.10;;;35.90;;
57800;SDS011;43627;42.728;23.256;2023-01-16T08:24:10;61.55;;;30.08;;
57800;SDS011;43627;42.728;23.256;2023-01-16T08:26:39;75.28;;;33.58;;
57800;SDS011;43627;42.728;23.256;2023-01-16T08:29:06;70.57;;;32.35;;
57800;SDS011;43627;42.728;23.256;2023-01-16T08:31:33;56.45;;;27.17;;
57800;SDS011;43627;42.728;23.256;2023-01-16T08:34:00;67.57;;;31.02;;
57800;SDS011;43627;42.728;23.256;2023-01-16T08:36:28;75.90;;;35.15;;
57800;SDS011;43627;42.728;23.256;2023-01-16T08:38:55;87.53;;;37.55;;
57800;SDS011;43627;42.728;23.256;2023-01-16T08:41:21;78.32;;;36.25;;
57800;SDS011;43627;42.728;23.256;2023-01-16T08:44:07;90.90;;;36.05;;
57800;SDS011;43627;42.728;23.256;2023-01-16T08:46:59;106.25;;;43.38;;
57800;SDS011;43627;42.728;23.256;2023-01-16T08:49:48;95.10;;;43.00;;
57800;SDS011;43627;42.728;23.256;2023-01-16T08:52:34;107.00;;;45.70;;
57800;SDS011;43627;42.728;23.256;2023-01-16T08:55:02;104.57;;;43.35;;
57800;SDS011;43627;42.728;23.256;2023-01-16T08:57:30;98.00;;;43.72;;
57800;SDS011;43627;42.728;23.256;2023-01-16T08:59:57;101.55;;;44.10;;
57800;SDS011;43627;42.728;23.256;2023-01-16T09:02:24;108.10;;;44.42;;
57800;SDS011;43627;42.728;23.256;2023-01-16T09:04:53;96.40;;;42.38;;
57800;SDS011;43627;42.728;23.256;2023-01-16T09:07:21;109.40;;;46.13;;
57800;SDS011;43627;42.728;23.256;2023-01-16T09:09:48;111.47;;;47.45;;
57800;SDS011;43627;42.728;23.256;2023-01-16T09:12:15;114.72;;;47.63;;
57800;SDS011;43627;42.728;23.256;2023-01-16T09:15:01;101.05;;;45.97;;
57800;SDS011;43627;42.728;23.256;2023-01-16T09:17:28;101.13;;;44.65;;
57800;SDS011;43627;42.728;23.256;2023-01-16T09:19:55;91.45;;;40.53;;
57800;SDS011;43627;42.728;23.256;2023-01-16T09:22:22;103.13;;;44.55;;
57800;SDS011;43627;42.728;23.256;2023-01-16T09:24:53;99.68;;;41.38;;
57800;SDS011;43627;42.728;23.256;2023-01-16T09:27:19;95.63;;;39.90;;
57800;SDS011;43627;42.728;23.256;2023-01-16T09:29:46;79.25;;;36.67;;
57800;SDS011;43627;42.728;23.256;2023-01-16T09:32:13;75.03;;;36.25;;
57800;SDS011;43627;42.728;23.256;2023-01-16T09:34:40;74.82;;;35.63;;
57800;SDS011;43627;42.728;23.256;2023-01-16T09:37:07;81.70;;;35.13;;
57800;SDS011;43627;42.728;23.256;2023-01-16T09:39:34;70.78;;;33.05;;
57800;SDS011;43627;42.728;23.256;2023-01-16T09:42:07;69.65;;;30.95;;
57800;SDS011;43627;42.728;23.256;2023-01-16T09:45:01;54.22;;;22.98;;
57800;SDS011;43627;42.728;23.256;2023-01-16T09:47:32;34.30;;;18.77;;
57800;SDS011;43627;42.728;23.256;2023-01-16T09:52:39;56.58;;;25.67;;
57800;SDS011;43627;42.728;23.256;2023-01-16T09:55:31;58.30;;;25.90;;
57800;SDS011;43627;42.728;23.256;2023-01-16T09:58:22;52.05;;;24.13;;
57800;SDS011;43627;42.728;23.256;2023-01-16T10:01:14;46.90;;;21.50;;
57800;SDS011;43627;42.728;23.256;2023-01-16T10:03:49;49.50;;;23.67;;
57800;SDS011;43627;42.728;23.256;2023-01-16T10:14:37;41.58;;;19.25;;
57800;SDS011;43627;42.728;23.256;2023-01-16T10:17:33;34.50;;;16.50;;
57800;SDS011;43627;42.728;23.256;2023-01-16T10:31:48;54.80;;;24.80;;
57800;SDS011;43627;42.728;23.256;2023-01-16T10:37:20;58.38;;;27.92;;
57800;SDS011;43627;42.728;23.256;2023-01-16T10:39:49;56.83;;;27.70;;
57800;SDS011;43627;42.728;23.256;2023-01-16T10:42:17;47.17;;;24.75;;
57800;SDS011;43627;42.728;23.256;2023-01-16T10:45:20;46.53;;;20.23;;
57800;SDS011;43627;42.728;23.256;2023-01-16T10:48:09;51.58;;;24.58;;
57800;SDS011;43627;42.728;23.256;2023-01-16T10:50:57;56.25;;;25.42;;
57800;SDS011;43627;42.728;23.256;2023-01-16T10:53:24;37.65;;;19.73;;
57800;SDS011;43627;42.728;23.256;2023-01-16T10:55:51;31.65;;;14.70;;
57800;SDS011;43627;42.728;23.256;2023-01-16T11:01:02;47.35;;;22.20;;
57800;SDS011;43627;42.728;23.256;2023-01-16T11:03:34;40.75;;;19.40;;
57800;SDS011;43627;42.728;23.256;2023-01-16T11:06:07;42.78;;;21.05;;
57800;SDS011;43627;42.728;23.256;2023-01-16T11:08:34;42.53;;;19.90;;
57800;SDS011;43627;42.728;23.256;2023-01-16T11:11:01;44.75;;;19.08;;
57800;SDS011;43627;42.728;23.256;2023-01-16T11:13:30;38.40;;;18.23;;
57800;SDS011;43627;42.728;23.256;2023-01-16T11:19:26;45.13;;;19.58;;
57800;SDS011;43627;42.728;23.256;2023-01-16T11:21:57;36.17;;;19.15;;
57800;SDS011;43627;42.728;23.256;2023-01-16T11:24:35;41.33;;;20.52;;
57800;SDS011;43627;42.728;23.256;2023-01-16T11:27:07;44.42;;;19.45;;
57800;SDS011;43627;42.728;23.256;2023-01-16T11:29:40;39.30;;;18.77;;
57800;SDS011;43627;42.728;23.256;2023-01-16T11:32:13;39.33;;;17.88;;
57800;SDS011;43627;42.728;23.256;2023-01-16T11:34:45;32.90;;;17.00;;
57800;SDS011;43627;42.728;23.256;2023-01-16T11:37:13;37.42;;;19.15;;
57800;SDS011;43627;42.728;23.256;2023-01-16T11:39:45;43.25;;;21.02;;
57800;SDS011;43627;42.728;23.256;2023-01-16T11:42:15;29.58;;;13.48;;
57800;SDS011;43627;42.728;23.256;2023-01-16T11:45:11;38.72;;;18.73;;
57800;SDS011;43627;42.728;23.256;2023-01-16T11:48:01;41.40;;;19.77;;
57800;SDS011;43627;42.728;23.256;2023-01-16T11:50:58;55.60;;;22.17;;
57800;SDS011;43627;42.728;23.256;2023-01-16T11:53:29;47.50;;;21.77;;
57800;SDS011;43627;42.728;23.256;2023-01-16T12:04:46;35.88;;;16.05;;
57800;SDS011;43627;42.728;23.256;2023-01-16T12:08:24;21.95;;;11.63;;
57800;SDS011;43627;42.728;23.256;2023-01-16T12:24:43;35.55;;;18.00;;
57800;SDS011;43627;42.728;23.256;2023-01-16T12:33:20;31.88;;;16.60;;
57800;SDS011;43627;42.728;23.256;2023-01-16T12:38:26;35.30;;;16.77;;
57800;SDS011;43627;42.728;23.256;2023-01-16T12:41:06;39.28;;;18.85;;
57800;SDS011;43627;42.728;23.256;2023-01-16T12:47:02;43.05;;;17.63;;
57800;SDS011;43627;42.728;23.256;2023-01-16T12:58:31;34.45;;;14.63;;
57800;SDS011;43627;42.728;23.256;2023-01-16T13:01:08;46.67;;;19.50;;
57800;SDS011;43627;42.728;23.256;2023-01-16T13:03:41;35.00;;;17.27;;
57800;SDS011;43627;42.728;23.256;2023-01-16T13:06:55;29.58;;;13.85;;
57800;SDS011;43627;42.728;23.256;2023-01-16T13:12:40;24.52;;;11.93;;
57800;SDS011;43627;42.728;23.256;2023-01-16T13:15:28;23.58;;;11.05;;
57800;SDS011;43627;42.728;23.256;2023-01-16T13:20:29;31.52;;;14.63;;
57800;SDS011;43627;42.728;23.256;2023-01-16T13:23:01;30.63;;;14.13;;
57800;SDS011;43627;42.728;23.256;2023-01-16T13:28:02;31.70;;;15.88;;
57800;SDS011;43627;42.728;23.256;2023-01-16T13:30:33;30.20;;;14.93;;
57800;SDS011;43627;42.728;23.256;2023-01-16T13:33:02;30.35;;;15.23;;
57800;SDS011;43627;42.728;23.256;2023-01-16T13:35:39;43.22;;;17.08;;
57800;SDS011;43627;42.728;23.256;2023-01-16T13:43:59;30.60;;;15.35;;
57800;SDS011;43627;42.728;23.256;2023-01-16T13:47:01;37.33;;;17.15;;
57800;SDS011;43627;42.728;23.256;2023-01-16T13:49:35;34.35;;;15.43;;
57800;SDS011;43627;42.728;23.256;2023-01-16T13:52:03;39.75;;;18.00;;
57800;SDS011;43627;42.728;23.256;2023-01-16T13:54:38;33.10;;;15.68;;
57800;SDS011;43627;42.728;23.256;2023-01-16T13:57:12;42.40;;;18.33;;
57800;SDS011;43627;42.728;23.256;2023-01-16T13:59:50;39.72;;;17.67;;
57800;SDS011;43627;42.728;23.256;2023-01-16T14:05:22;36.95;;;14.32;;
57800;SDS011;43627;42.728;23.256;2023-01-16T14:11:12;31.27;;;16.27;;
57800;SDS011;43627;42.728;23.256;2023-01-16T14:13:42;37.00;;;19.27;;
57800;SDS011;43627;42.728;23.256;2023-01-16T14:19:13;35.58;;;16.27;;
57800;SDS011;43627;42.728;23.256;2023-01-16T14:21:47;48.55;;;20.33;;
57800;SDS011;43627;42.728;23.256;2023-01-16T14:24:38;33.72;;;17.20;;
57800;SDS011;43627;42.728;23.256;2023-01-16T14:27:11;35.15;;;17.05;;
57800;SDS011;43627;42.728;23.256;2023-01-16T14:29:45;38.38;;;17.13;;
57800;SDS011;43627;42.728;23.256;2023-01-16T14:32:28;24.92;;;11.65;;
57800;SDS011;43627;42.728;23.256;2023-01-16T14:37:42;31.85;;;15.52;;
57800;SDS011;43627;42.728;23.256;2023-01-16T14:40:17;32.97;;;13.05;;
57800;SDS011;43627;42.728;23.256;2023-01-16T14:42:48;38.33;;;17.15;;
57800;SDS011;43627;42.728;23.256;2023-01-16T14:48:30;40.28;;;18.15;;
57800;SDS011;43627;42.728;23.256;2023-01-16T14:51:32;41.20;;;17.92;;
57800;SDS011;43627;42.728;23.256;2023-01-16T14:54:27;36.90;;;16.88;;
57800;SDS011;43627;42.728;23.256;2023-01-16T14:57:18;37.65;;;18.02;;
57800;SDS011;43627;42.728;23.256;2023-01-16T15:02:24;38.60;;;17.00;;
57800;SDS011;43627;42.728;23.256;2023-01-16T15:08:10;40.67;;;14.13;;
57800;SDS011;43627;42.728;23.256;2023-01-16T15:10:41;40.60;;;19.73;;
57800;SDS011;43627;42.728;23.256;2023-01-16T15:15:45;41.53;;;18.73;;
57800;SDS011;43627;42.728;23.256;2023-01-16T15:18:17;41.22;;;19.50;;
57800;SDS011;43627;42.728;23.256;2023-01-16T15:21:03;39.05;;;17.98;;
57800;SDS011;43627;42.728;23.256;2023-01-16T15:24:08;34.53;;;17.20;;
57800;SDS011;43627;42.728;23.256;2023-01-16T15:26:58;46.17;;;21.95;;
57800;SDS011;43627;42.728;23.256;2023-01-16T15:32:02;43.40;;;20.85;;
57800;SDS011;43627;42.728;23.256;2023-01-16T15:34:35;43.17;;;20.95;;
57800;SDS011;43627;42.728;23.256;2023-01-16T15:37:05;49.58;;;22.40;;
57800;SDS011;43627;42.728;23.256;2023-01-16T15:39:49;47.78;;;22.42;;
57800;SDS011;43627;42.728;23.256;2023-01-16T15:42:20;75.95;;;32.40;;
57800;SDS011;43627;42.728;23.256;2023-01-16T15:50:55;49.17;;;24.85;;
57800;SDS011;43627;42.728;23.256;2023-01-16T15:53:42;45.85;;;19.42;;
57800;SDS011;43627;42.728;23.256;2023-01-16T15:56:22;44.15;;;21.50;;
57800;SDS011;43627;42.728;23.256;2023-01-16T15:58:54;50.20;;;23.77;;
57800;SDS011;43627;42.728;23.256;2023-01-16T16:01:31;44.15;;;22.95;;
57800;SDS011;43627;42.728;23.256;2023-01-16T16:04:00;46.42;;;23.55;;
57800;SDS011;43627;42.728;23.256;2023-01-16T16:06:29;48.55;;;24.52;;
57800;SDS011;43627;42.728;23.256;2023-01-16T16:08:56;52.63;;;25.73;;
57800;SDS011;43627;42.728;23.256;2023-01-16T16:11:29;51.60;;;25.08;;
57800;SDS011;43627;42.728;23.256;2023-01-16T16:28:26;42.92;;;21.58;;
57800;SDS011;43627;42.728;23.256;2023-01-16T16:36:45;37.42;;;16.65;;
57800;SDS011;43627;42.728;23.256;2023-01-16T16:39:34;45.28;;;21.27;;
57800;SDS011;43627;42.728;23.256;2023-01-16T16:53:02;48.22;;;23.17;;
57800;SDS011;43627;42.728;23.256;2023-01-16T16:55:39;48.20;;;21.15;;
57800;SDS011;43627;42.728;23.256;2023-01-16T16:58:14;37.78;;;15.75;;
57800;SDS011;43627;42.728;23.256;2023-01-16T17:00:53;48.08;;;23.10;;
57800;SDS011;43627;42.728;23.256;2023-01-16T17:03:21;43.28;;;19.23;;
57800;SDS011;43627;42.728;23.256;2023-01-16T17:05:50;47.40;;;21.58;;
57800;SDS011;43627;42.728;23.256;2023-01-16T17:08:20;44.60;;;22.05;;
57800;SDS011;43627;42.728;23.256;2023-01-16T17:10:49;41.25;;;20.23;;
57800;SDS011;43627;42.728;23.256;2023-01-16T17:13:21;49.13;;;22.35;;
57800;SDS011;43627;42.728;23.256;2023-01-16T17:15:50;48.42;;;23.08;;
57800;SDS011;43627;42.728;23.256;2023-01-16T17:18:21;47.97;;;23.08;;
57800;SDS011;43627;42.728;23.256;2023-01-16T17:20:50;39.20;;;19.10;;
57800;SDS011;43627;42.728;23.256;2023-01-16T17:23:19;48.95;;;21.23;;
57800;SDS011;43627;42.728;23.256;2023-01-16T17:25:47;47.67;;;21.13;;
57800;SDS011;43627;42.728;23.256;2023-01-16T17:28:14;48.47;;;23.17;;
57800;SDS011;43627;42.728;23.256;2023-01-16T17:30:40;44.15;;;21.13;;
57800;SDS011;43627;42.728;23.256;2023-01-16T17:33:11;54.28;;;25.13;;
57800;SDS011;43627;42.728;23.256;2023-01-16T17:35:43;46.95;;;22.52;;
57800;SDS011;43627;42.728;23.256;2023-01-16T17:38:25;53.42;;;25.38;;
57800;SDS011;43627;42.728;23.256;2023-01-16T17:40:52;61.13;;;28.42;;
57800;SDS011;43627;42.728;23.256;2023-01-16T17:43:20;56.63;;;27.08;;
57800;SDS011;43627;42.728;23.256;2023-01-16T17:46:13;55.92;;;25.85;;
57800;SDS011;43627;42.728;23.256;2023-01-16T17:48:41;57.15;;;27.23;;
57800;SDS011;43627;42.728;23.256;2023-01-16T17:51:08;63.67;;;28.60;;
57800;SDS011;43627;42.728;23.256;2023-01-16T17:53:35;55.25;;;26.30;;
57800;SDS011;43627;42.728;23.256;2023-01-16T17:56:04;48.53;;;22.85;;
57800;SDS011;43627;42.728;23.256;2023-01-16T17:58:37;50.42;;;22.92;;
57800;SDS011;43627;42.728;23.256;2023-01-16T18:01:28;48.92;;;23.48;;
57800;SDS011;43627;42.728;23.256;2023-01-16T18:03:57;50.30;;;24.30;;
57800;SDS011;43627;42.728;23.256;2023-01-16T18:06:36;49.00;;;23.63;;
57800;SDS011;43627;42.728;23.256;2023-01-16T18:09:04;50.22;;;23.27;;
57800;SDS011;43627;42.728;23.256;2023-01-16T18:11:33;49.47;;;24.20;;